sensor_id;sensor_type;location;lat;lon;timestamp;temperature;humidity
15636;DHT22;7917;50.818;6.972;2023-04-25T00:01:50;7.50;1.00
15636;DHT22;7917;50.818;6.972;2023-04-25T00:04:18;7.50;1.00
15636;DHT22;7917;50.818;6.972;2023-04-25T00:06:47;7.50;1.00
15636;DHT22;7917;50.818;6.972;2023-04-25T00:09:13;7.40;84.00
15636;DHT22;7917;50.818;6.972;2023-04-25T00:11:41;7.40;72.30
15636;DHT22;7917;50.818;6.972;2023-04-25T00:14:08;7.40;12.50
15636;DHT22;7917;50.818;6.972;2023-04-25T00:16:35;7.40;99.90
15636;DHT22;7917;50.818;6.972;2023-04-25T00:19:02;7.30;99.90
15636;DHT22;7917;50.818;6.972;2023-04-25T00:21:30;7.30;99.90
15636;DHT22;7917;50.818;6.972;2023-04-25T00:23:57;7.30;1.00
15636;DHT22;7917;50.818;6.972;2023-04-25T00:26:24;7.20;1.00
15636;DHT22;7917;50.818;6.972;2023-04-25T00:28:52;7.20;1.00
15636;DHT22;7917;50.818;6.972;2023-04-25T00:31:19;7.20;1.00
15636;DHT22;7917;50.818;6.972;2023-04-25T00:33:47;7.20;1.00
15636;DHT22;7917;50.818;6.972;2023-04-25T00:36:13;7.10;1.00
15636;DHT22;7917;50.818;6.972;2023-04-25T00:38:40;7.00;1.00
15636;DHT22;7917;50.818;6.972;2023-04-25T00:41:07;7.00;1.00
15636;DHT22;7917;50.818;6.972;2023-04-25T00:43:36;7.00;1.00
15636;DHT22;7917;50.818;6.972;2023-04-25T00:46:07;6.90;1.00
15636;DHT22;7917;50.818;6.972;2023-04-25T00:48:34;6.80;46.80
15636;DHT22;7917;50.818;6.972;2023-04-25T00:51:00;6.70;63.20
15636;DHT22;7917;50.818;6.972;2023-04-25T00:53:28;6.70;1.00
15636;DHT22;7917;50.818;6.972;2023-04-25T00:55:57;6.60;1.00
15636;DHT22;7917;50.818;6.972;2023-04-25T00:58:24;6.60;1.00
15636;DHT22;7917;50.818;6.972;2023-04-25T01:00:52;6.50;1.00
15636;DHT22;7917;50.818;6.972;2023-04-25T01:03:33;6.40;99.90
15636;DHT22;7917;50.818;6.972;2023-04-25T01:06:01;6.20;99.90
15636;DHT22;7917;50.818;6.972;2023-04-25T01:08:28;6.20;1.00
15636;DHT22;7917;50.818;6.972;2023-04-25T01:10:56;6.20;1.00
15636;DHT22;7917;50.818;6.972;2023-04-25T01:13:22;6.10;1.00
15636;DHT22;7917;50.818;6.972;2023-04-25T01:15:49;6.00;1.00
15636;DHT22;7917;50.818;6.972;2023-04-25T01:18:16;5.90;1.00
15636;DHT22;7917;50.818;6.972;2023-04-25T01:20:46;6.00;1.00
15636;DHT22;7917;50.818;6.972;2023-04-25T01:23:14;5.90;1.00
15636;DHT22;7917;50.818;6.972;2023-04-25T01:25:41;5.80;1.00
15636;DHT22;7917;50.818;6.972;2023-04-25T01:28:08;5.60;99.90
15636;DHT22;7917;50.818;6.972;2023-04-25T01:30:35;5.50;1.00
15636;DHT22;7917;50.818;6.972;2023-04-25T01:33:04;5.40;1.00
15636;DHT22;7917;50.818;6.972;2023-04-25T01:35:31;5.40;1.00
15636;DHT22;7917;50.818;6.972;2023-04-25T01:37:59;5.30;99.90
15636;DHT22;7917;50.818;6.972;2023-04-25T01:40:27;5.30;1.00
15636;DHT22;7917;50.818;6.972;2023-04-25T01:42:54;5.40;1.00
15636;DHT22;7917;50.818;6.972;2023-04-25T01:45:21;5.30;99.90
15636;DHT22;7917;50.818;6.972;2023-04-25T01:47:48;5.30;1.00
15636;DHT22;7917;50.818;6.972;2023-04-25T01:50:16;5.20;99.90
15636;DHT22;7917;50.818;6.972;2023-04-25T01:52:43;5.10;99.90
15636;DHT22;7917;50.818;6.972;2023-04-25T01:55:11;5.10;99.90
15636;DHT22;7917;50.818;6.972;2023-04-25T01:57:38;5.00;1.00
15636;DHT22;7917;50.818;6.972;2023-04-25T02:00:09;5.00;99.90
15636;DHT22;7917;50.818;6.972;2023-04-25T02:02:36;5.00;1.00
15636;DHT22;7917;50.818;6.972;2023-04-25T02:05:03;5.00;1.00
15636;DHT22;7917;50.818;6.972;2023-04-25T02:07:30;5.00;1.00
15636;DHT22;7917;50.818;6.972;2023-04-25T02:09:58;5.00;1.00
15636;DHT22;7917;50.818;6.972;2023-04-25T02:12:25;5.00;1.00
15636;DHT22;7917;50.818;6.972;2023-04-25T02:14:53;5.00;1.00
15636;DHT22;7917;50.818;6.972;2023-04-25T02:17:19;4.90;1.00
15636;DHT22;7917;50.818;6.972;2023-04-25T02:19:48;4.80;1.00
15636;DHT22;7917;50.818;6.972;2023-04-25T02:22:15;4.90;26.30
15636;DHT22;7917;50.818;6.972;2023-04-25T02:24:41;4.90;93.20
15636;DHT22;7917;50.818;6.972;2023-04-25T02:27:08;4.80;71.50
15636;DHT22;7917;50.818;6.972;2023-04-25T02:29:35;4.80;99.90
15636;DHT22;7917;50.818;6.972;2023-04-25T02:32:02;4.80;99.90
15636;DHT22;7917;50.818;6.972;2023-04-25T02:34:29;4.80;99.90
15636;DHT22;7917;50.818;6.972;2023-04-25T02:36:56;4.90;99.90
15636;DHT22;7917;50.818;6.972;2023-04-25T02:39:23;4.90;99.90
15636;DHT22;7917;50.818;6.972;2023-04-25T02:41:51;4.90;99.90
15636;DHT22;7917;50.818;6.972;2023-04-25T02:44:22;5.00;99.90
15636;DHT22;7917;50.818;6.972;2023-04-25T02:46:48;5.00;99.90
15636;DHT22;7917;50.818;6.972;2023-04-25T02:49:16;5.00;99.90
15636;DHT22;7917;50.818;6.972;2023-04-25T02:51:43;4.90;99.90
15636;DHT22;7917;50.818;6.972;2023-04-25T02:54:10;4.90;99.90
15636;DHT22;7917;50.818;6.972;2023-04-25T02:56:36;5.00;99.90
15636;DHT22;7917;50.818;6.972;2023-04-25T02:59:03;4.90;99.90
15636;DHT22;7917;50.818;6.972;2023-04-25T03:01:30;4.90;99.90
15636;DHT22;7917;50.818;6.972;2023-04-25T03:03:56;4.90;99.90
15636;DHT22;7917;50.818;6.972;2023-04-25T03:06:24;4.90;99.90
15636;DHT22;7917;50.818;6.972;2023-04-25T03:08:50;4.80;99.90
15636;DHT22;7917;50.818;6.972;2023-04-25T03:11:17;4.80;99.90
15636;DHT22;7917;50.818;6.972;2023-04-25T03:13:46;4.90;99.90
15636;DHT22;7917;50.818;6.972;2023-04-25T03:16:13;4.90;99.90
15636;DHT22;7917;50.818;6.972;2023-04-25T03:18:40;4.90;99.90
15636;DHT22;7917;50.818;6.972;2023-04-25T03:21:06;4.90;99.90
15636;DHT22;7917;50.818;6.972;2023-04-25T03:23:34;5.00;99.90
15636;DHT22;7917;50.818;6.972;2023-04-25T03:26:00;5.00;99.90
15636;DHT22;7917;50.818;6.972;2023-04-25T03:28:27;5.00;99.90
15636;DHT22;7917;50.818;6.972;2023-04-25T03:30:54;5.00;99.90
15636;DHT22;7917;50.818;6.972;2023-04-25T03:33:21;5.10;99.90
15636;DHT22;7917;50.818;6.972;2023-04-25T03:35:50;5.20;99.90
15636;DHT22;7917;50.818;6.972;2023-04-25T03:38:17;5.20;99.90
15636;DHT22;7917;50.818;6.972;2023-04-25T03:40:44;5.20;99.90
15636;DHT22;7917;50.818;6.972;2023-04-25T03:43:11;5.20;99.90
15636;DHT22;7917;50.818;6.972;2023-04-25T03:45:38;5.30;99.90
15636;DHT22;7917;50.818;6.972;2023-04-25T03:48:05;5.30;99.90
15636;DHT22;7917;50.818;6.972;2023-04-25T03:50:31;5.40;99.90
15636;DHT22;7917;50.818;6.972;2023-04-25T03:52:58;5.40;99.90
15636;DHT22;7917;50.818;6.972;2023-04-25T03:55:25;5.40;99.90
15636;DHT22;7917;50.818;6.972;2023-04-25T03:57:52;5.50;99.90
15636;DHT22;7917;50.818;6.972;2023-04-25T04:00:19;5.50;99.90
15636;DHT22;7917;50.818;6.972;2023-04-25T04:02:45;5.50;99.90
15636;DHT22;7917;50.818;6.972;2023-04-25T04:05:12;5.50;99.90
15636;DHT22;7917;50.818;6.972;2023-04-25T04:07:38;5.50;99.90
15636;DHT22;7917;50.818;6.972;2023-04-25T04:10:06;5.50;99.90
15636;DHT22;7917;50.818;6.972;2023-04-25T04:12:33;5.60;99.90
15636;DHT22;7917;50.818;6.972;2023-04-25T04:15:03;5.60;99.90
15636;DHT22;7917;50.818;6.972;2023-04-25T04:17:30;5.60;99.90
15636;DHT22;7917;50.818;6.972;2023-04-25T04:19:57;5.60;99.90
15636;DHT22;7917;50.818;6.972;2023-04-25T04:22:24;5.60;99.90
15636;DHT22;7917;50.818;6.972;2023-04-25T04:24:53;5.70;99.90
15636;DHT22;7917;50.818;6.972;2023-04-25T04:27:21;5.70;99.90
15636;DHT22;7917;50.818;6.972;2023-04-25T04:29:48;5.80;99.90
15636;DHT22;7917;50.818;6.972;2023-04-25T04:32:18;5.90;99.90
15636;DHT22;7917;50.818;6.972;2023-04-25T04:34:44;5.90;99.90
15636;DHT22;7917;50.818;6.972;2023-04-25T04:37:13;6.00;99.90
15636;DHT22;7917;50.818;6.972;2023-04-25T04:39:40;6.00;99.90
15636;DHT22;7917;50.818;6.972;2023-04-25T04:42:07;6.00;99.90
15636;DHT22;7917;50.818;6.972;2023-04-25T04:44:34;6.00;99.90
15636;DHT22;7917;50.818;6.972;2023-04-25T04:47:04;6.10;99.90
15636;DHT22;7917;50.818;6.972;2023-04-25T04:49:33;6.10;99.90
15636;DHT22;7917;50.818;6.972;2023-04-25T04:51:59;6.20;99.90
15636;DHT22;7917;50.818;6.972;2023-04-25T04:54:26;6.20;99.90
15636;DHT22;7917;50.818;6.972;2023-04-25T04:56:59;6.20;91.60
15636;DHT22;7917;50.818;6.972;2023-04-25T04:59:25;6.30;1.00
15636;DHT22;7917;50.818;6.972;2023-04-25T05:01:53;6.20;1.00
15636;DHT22;7917;50.818;6.972;2023-04-25T05:04:19;6.30;99.90
15636;DHT22;7917;50.818;6.972;2023-04-25T05:06:47;6.40;1.00
15636;DHT22;7917;50.818;6.972;2023-04-25T05:09:13;6.50;99.90
15636;DHT22;7917;50.818;6.972;2023-04-25T05:11:40;6.50;1.00
15636;DHT22;7917;50.818;6.972;2023-04-25T05:14:08;6.60;99.90
15636;DHT22;7917;50.818;6.972;2023-04-25T05:16:38;6.60;99.90
15636;DHT22;7917;50.818;6.972;2023-04-25T05:19:05;6.70;1.00
15636;DHT22;7917;50.818;6.972;2023-04-25T05:21:31;6.80;14.00
15636;DHT22;7917;50.818;6.972;2023-04-25T05:23:59;6.90;1.00
15636;DHT22;7917;50.818;6.972;2023-04-25T05:26:26;6.90;99.90
15636;DHT22;7917;50.818;6.972;2023-04-25T05:28:56;7.00;99.90
15636;DHT22;7917;50.818;6.972;2023-04-25T05:31:23;7.00;1.00
15636;DHT22;7917;50.818;6.972;2023-04-25T05:33:50;7.00;1.00
15636;DHT22;7917;50.818;6.972;2023-04-25T05:36:17;6.90;99.90
15636;DHT22;7917;50.818;6.972;2023-04-25T05:42:07;7.10;99.90
15636;DHT22;7917;50.818;6.972;2023-04-25T05:44:34;7.10;99.90
15636;DHT22;7917;50.818;6.972;2023-04-25T05:47:01;7.20;1.00
15636;DHT22;7917;50.818;6.972;2023-04-25T05:49:27;7.30;1.00
15636;DHT22;7917;50.818;6.972;2023-04-25T05:51:55;7.40;1.00
15636;DHT22;7917;50.818;6.972;2023-04-25T05:54:22;7.40;99.90
15636;DHT22;7917;50.818;6.972;2023-04-25T05:56:49;7.40;1.00
15636;DHT22;7917;50.818;6.972;2023-04-25T05:59:51;7.40;77.60
15636;DHT22;7917;50.818;6.972;2023-04-25T06:02:22;7.40;1.00
15636;DHT22;7917;50.818;6.972;2023-04-25T06:04:50;7.50;1.00
15636;DHT22;7917;50.818;6.972;2023-04-25T06:07:16;7.50;1.00
15636;DHT22;7917;50.818;6.972;2023-04-25T06:09:43;7.50;1.00
15636;DHT22;7917;50.818;6.972;2023-04-25T06:12:10;7.70;1.00
15636;DHT22;7917;50.818;6.972;2023-04-25T06:14:37;7.70;1.00
15636;DHT22;7917;50.818;6.972;2023-04-25T06:17:04;7.80;1.00
15636;DHT22;7917;50.818;6.972;2023-04-25T06:19:34;7.80;1.00
15636;DHT22;7917;50.818;6.972;2023-04-25T06:22:01;7.90;99.90
15636;DHT22;7917;50.818;6.972;2023-04-25T06:24:28;8.00;99.90
15636;DHT22;7917;50.818;6.972;2023-04-25T06:26:55;8.00;99.90
15636;DHT22;7917;50.818;6.972;2023-04-25T06:29:22;8.00;99.90
15636;DHT22;7917;50.818;6.972;2023-04-25T06:31:53;8.10;1.00
15636;DHT22;7917;50.818;6.972;2023-04-25T06:34:20;8.10;1.00
15636;DHT22;7917;50.818;6.972;2023-04-25T06:36:47;8.10;1.00
15636;DHT22;7917;50.818;6.972;2023-04-25T06:39:14;8.20;31.30
15636;DHT22;7917;50.818;6.972;2023-04-25T06:41:40;8.10;1.00
15636;DHT22;7917;50.818;6.972;2023-04-25T06:44:07;8.20;1.00
15636;DHT22;7917;50.818;6.972;2023-04-25T06:46:34;8.40;1.00
15636;DHT22;7917;50.818;6.972;2023-04-25T06:49:02;8.50;1.00
15636;DHT22;7917;50.818;6.972;2023-04-25T06:51:29;8.50;1.00
15636;DHT22;7917;50.818;6.972;2023-04-25T06:53:56;8.60;1.00
15636;DHT22;7917;50.818;6.972;2023-04-25T06:56:23;8.60;1.00
15636;DHT22;7917;50.818;6.972;2023-04-25T06:58:50;8.60;1.00
15636;DHT22;7917;50.818;6.972;2023-04-25T07:01:16;8.40;1.00
15636;DHT22;7917;50.818;6.972;2023-04-25T07:03:43;8.40;1.00
15636;DHT22;7917;50.818;6.972;2023-04-25T07:06:10;8.40;1.00
15636;DHT22;7917;50.818;6.972;2023-04-25T07:11:59;8.60;1.00
15636;DHT22;7917;50.818;6.972;2023-04-25T07:14:27;8.60;1.00
15636;DHT22;7917;50.818;6.972;2023-04-25T07:16:54;8.60;1.00
15636;DHT22;7917;50.818;6.972;2023-04-25T07:19:22;8.70;1.00
15636;DHT22;7917;50.818;6.972;2023-04-25T07:21:52;8.90;1.00
15636;DHT22;7917;50.818;6.972;2023-04-25T07:24:19;8.80;1.00
15636;DHT22;7917;50.818;6.972;2023-04-25T07:26:49;8.80;1.00
15636;DHT22;7917;50.818;6.972;2023-04-25T07:29:16;9.20;1.00
15636;DHT22;7917;50.818;6.972;2023-04-25T07:31:43;9.50;1.00
15636;DHT22;7917;50.818;6.972;2023-04-25T07:34:10;9.70;99.90
15636;DHT22;7917;50.818;6.972;2023-04-25T07:36:37;9.90;99.90
15636;DHT22;7917;50.818;6.972;2023-04-25T07:39:03;9.70;99.90
15636;DHT22;7917;50.818;6.972;2023-04-25T07:41:30;9.70;99.90
15636;DHT22;7917;50.818;6.972;2023-04-25T07:43:57;9.60;99.90
15636;DHT22;7917;50.818;6.972;2023-04-25T07:46:25;9.50;99.90
15636;DHT22;7917;50.818;6.972;2023-04-25T07:48:52;9.30;99.90
15636;DHT22;7917;50.818;6.972;2023-04-25T07:51:19;9.20;99.90
15636;DHT22;7917;50.818;6.972;2023-04-25T07:53:46;9.10;99.90
15636;DHT22;7917;50.818;6.972;2023-04-25T07:56:13;9.10;99.90
15636;DHT22;7917;50.818;6.972;2023-04-25T07:58:56;9.40;99.90
15636;DHT22;7917;50.818;6.972;2023-04-25T08:01:24;9.70;99.90
15636;DHT22;7917;50.818;6.972;2023-04-25T08:03:53;9.80;99.90
15636;DHT22;7917;50.818;6.972;2023-04-25T08:06:20;9.70;99.90
15636;DHT22;7917;50.818;6.972;2023-04-25T08:08:46;9.60;99.90
15636;DHT22;7917;50.818;6.972;2023-04-25T08:11:14;9.70;99.90
15636;DHT22;7917;50.818;6.972;2023-04-25T08:13:41;9.60;99.90
15636;DHT22;7917;50.818;6.972;2023-04-25T08:16:08;9.40;99.90
15636;DHT22;7917;50.818;6.972;2023-04-25T08:18:36;9.40;99.90
15636;DHT22;7917;50.818;6.972;2023-04-25T08:21:03;9.30;99.90
15636;DHT22;7917;50.818;6.972;2023-04-25T08:23:29;9.30;99.90
15636;DHT22;7917;50.818;6.972;2023-04-25T08:25:56;9.30;99.90
15636;DHT22;7917;50.818;6.972;2023-04-25T08:28:23;9.20;99.90
15636;DHT22;7917;50.818;6.972;2023-04-25T08:30:53;9.20;99.90
15636;DHT22;7917;50.818;6.972;2023-04-25T08:33:20;9.20;99.90
15636;DHT22;7917;50.818;6.972;2023-04-25T08:35:48;9.30;99.90
15636;DHT22;7917;50.818;6.972;2023-04-25T08:38:15;9.40;99.90
15636;DHT22;7917;50.818;6.972;2023-04-25T08:40:43;9.70;99.90
15636;DHT22;7917;50.818;6.972;2023-04-25T08:43:13;10.10;99.90
15636;DHT22;7917;50.818;6.972;2023-04-25T08:45:41;10.10;99.90
15636;DHT22;7917;50.818;6.972;2023-04-25T08:48:14;10.50;99.90
15636;DHT22;7917;50.818;6.972;2023-04-25T08:50:49;10.70;99.90
15636;DHT22;7917;50.818;6.972;2023-04-25T08:53:22;11.00;99.90
15636;DHT22;7917;50.818;6.972;2023-04-25T08:55:50;11.00;99.90
15636;DHT22;7917;50.818;6.972;2023-04-25T08:58:18;10.70;99.90
15636;DHT22;7917;50.818;6.972;2023-04-25T09:00:49;10.90;99.90
15636;DHT22;7917;50.818;6.972;2023-04-25T09:03:16;11.00;99.90
15636;DHT22;7917;50.818;6.972;2023-04-25T09:05:43;11.00;99.90
15636;DHT22;7917;50.818;6.972;2023-04-25T09:08:10;11.20;99.90
15636;DHT22;7917;50.818;6.972;2023-04-25T09:10:38;11.20;99.90
15636;DHT22;7917;50.818;6.972;2023-04-25T09:13:06;11.10;99.90
15636;DHT22;7917;50.818;6.972;2023-04-25T09:15:47;10.80;99.90
15636;DHT22;7917;50.818;6.972;2023-04-25T09:18:16;10.40;99.90
15636;DHT22;7917;50.818;6.972;2023-04-25T09:20:55;10.20;99.90
15636;DHT22;7917;50.818;6.972;2023-04-25T09:23:23;10.00;99.90
15636;DHT22;7917;50.818;6.972;2023-04-25T09:25:52;10.00;99.90
15636;DHT22;7917;50.818;6.972;2023-04-25T09:28:23;10.10;99.90
15636;DHT22;7917;50.818;6.972;2023-04-25T09:30:58;10.10;99.90
15636;DHT22;7917;50.818;6.972;2023-04-25T09:33:30;10.10;99.90
15636;DHT22;7917;50.818;6.972;2023-04-25T09:36:03;10.30;99.90
15636;DHT22;7917;50.818;6.972;2023-04-25T09:41:07;10.50;99.90
15636;DHT22;7917;50.818;6.972;2023-04-25T09:43:34;10.60;99.90
15636;DHT22;7917;50.818;6.972;2023-04-25T09:46:01;10.70;99.90
15636;DHT22;7917;50.818;6.972;2023-04-25T09:48:29;10.70;99.90
15636;DHT22;7917;50.818;6.972;2023-04-25T09:51:07;10.60;99.90
15636;DHT22;7917;50.818;6.972;2023-04-25T09:53:34;10.60;99.90
15636;DHT22;7917;50.818;6.972;2023-04-25T09:56:04;10.40;99.90
15636;DHT22;7917;50.818;6.972;2023-04-25T09:58:32;10.40;99.90
15636;DHT22;7917;50.818;6.972;2023-04-25T10:01:01;10.20;99.90
15636;DHT22;7917;50.818;6.972;2023-04-25T10:03:30;10.10;99.90
15636;DHT22;7917;50.818;6.972;2023-04-25T10:06:02;10.00;99.90
15636;DHT22;7917;50.818;6.972;2023-04-25T10:08:32;10.10;99.90
15636;DHT22;7917;50.818;6.972;2023-04-25T10:11:00;10.10;99.90
15636;DHT22;7917;50.818;6.972;2023-04-25T10:13:29;10.20;99.90
15636;DHT22;7917;50.818;6.972;2023-04-25T10:16:06;10.20;99.90
15636;DHT22;7917;50.818;6.972;2023-04-25T10:18:36;10.50;99.90
15636;DHT22;7917;50.818;6.972;2023-04-25T10:21:04;10.60;99.90
15636;DHT22;7917;50.818;6.972;2023-04-25T10:26:54;10.70;99.90
15636;DHT22;7917;50.818;6.972;2023-04-25T10:29:23;10.40;99.90
15636;DHT22;7917;50.818;6.972;2023-04-25T10:31:51;10.30;99.90
15636;DHT22;7917;50.818;6.972;2023-04-25T10:34:19;10.00;99.90
15636;DHT22;7917;50.818;6.972;2023-04-25T10:36:50;9.80;99.90
15636;DHT22;7917;50.818;6.972;2023-04-25T10:39:23;9.80;99.90
15636;DHT22;7917;50.818;6.972;2023-04-25T10:41:55;9.60;99.90
15636;DHT22;7917;50.818;6.972;2023-04-25T10:44:22;9.60;99.90
15636;DHT22;7917;50.818;6.972;2023-04-25T10:46:49;9.50;99.90
15636;DHT22;7917;50.818;6.972;2023-04-25T10:49:38;9.40;99.90
15636;DHT22;7917;50.818;6.972;2023-04-25T10:52:18;9.30;99.90
15636;DHT22;7917;50.818;6.972;2023-04-25T10:54:49;9.20;99.90
15636;DHT22;7917;50.818;6.972;2023-04-25T10:57:40;9.10;99.90
15636;DHT22;7917;50.818;6.972;2023-04-25T11:00:10;9.20;99.90
15636;DHT22;7917;50.818;6.972;2023-04-25T11:02:41;9.30;99.90
15636;DHT22;7917;50.818;6.972;2023-04-25T11:05:20;9.50;99.90
15636;DHT22;7917;50.818;6.972;2023-04-25T11:07:50;9.70;99.90
15636;DHT22;7917;50.818;6.972;2023-04-25T11:10:18;10.40;99.90
15636;DHT22;7917;50.818;6.972;2023-04-25T11:12:47;11.20;99.90
15636;DHT22;7917;50.818;6.972;2023-04-25T11:15:14;11.80;99.90
15636;DHT22;7917;50.818;6.972;2023-04-25T11:17:41;11.20;99.90
15636;DHT22;7917;50.818;6.972;2023-04-25T11:20:11;10.90;99.90
15636;DHT22;7917;50.818;6.972;2023-04-25T11:22:39;10.60;99.90
15636;DHT22;7917;50.818;6.972;2023-04-25T11:25:08;10.30;99.90
15636;DHT22;7917;50.818;6.972;2023-04-25T11:27:39;10.10;99.90
15636;DHT22;7917;50.818;6.972;2023-04-25T11:30:16;9.90;99.90
15636;DHT22;7917;50.818;6.972;2023-04-25T11:32:43;9.80;99.90
15636;DHT22;7917;50.818;6.972;2023-04-25T11:35:12;9.70;99.90
15636;DHT22;7917;50.818;6.972;2023-04-25T11:37:40;9.60;99.90
15636;DHT22;7917;50.818;6.972;2023-04-25T11:40:10;9.50;99.90
15636;DHT22;7917;50.818;6.972;2023-04-25T11:42:39;9.40;99.90
15636;DHT22;7917;50.818;6.972;2023-04-25T11:45:07;9.30;99.90
15636;DHT22;7917;50.818;6.972;2023-04-25T11:47:34;9.40;99.90
15636;DHT22;7917;50.818;6.972;2023-04-25T11:50:01;9.50;99.90
15636;DHT22;7917;50.818;6.972;2023-04-25T11:52:48;9.70;99.90
15636;DHT22;7917;50.818;6.972;2023-04-25T11:55:17;9.90;99.90
15636;DHT22;7917;50.818;6.972;2023-04-25T11:57:46;10.20;99.90
15636;DHT22;7917;50.818;6.972;2023-04-25T12:00:17;10.20;99.90
15636;DHT22;7917;50.818;6.972;2023-04-25T12:02:45;10.50;99.90
15636;DHT22;7917;50.818;6.972;2023-04-25T12:05:14;10.90;99.90
15636;DHT22;7917;50.818;6.972;2023-04-25T12:07:41;10.90;99.90
15636;DHT22;7917;50.818;6.972;2023-04-25T12:10:11;11.20;99.90
15636;DHT22;7917;50.818;6.972;2023-04-25T12:12:41;11.00;99.90
15636;DHT22;7917;50.818;6.972;2023-04-25T12:15:12;11.10;99.90
15636;DHT22;7917;50.818;6.972;2023-04-25T12:17:42;11.20;99.90
15636;DHT22;7917;50.818;6.972;2023-04-25T12:20:10;11.20;99.90
15636;DHT22;7917;50.818;6.972;2023-04-25T12:22:41;11.40;99.90
15636;DHT22;7917;50.818;6.972;2023-04-25T12:25:11;11.80;99.90
15636;DHT22;7917;50.818;6.972;2023-04-25T12:27:39;12.30;99.90
15636;DHT22;7917;50.818;6.972;2023-04-25T12:30:08;12.70;99.90
15636;DHT22;7917;50.818;6.972;2023-04-25T12:32:36;12.40;99.90
15636;DHT22;7917;50.818;6.972;2023-04-25T12:35:04;12.50;99.90
15636;DHT22;7917;50.818;6.972;2023-04-25T12:37:32;12.70;99.90
15636;DHT22;7917;50.818;6.972;2023-04-25T12:39:59;12.60;99.90
15636;DHT22;7917;50.818;6.972;2023-04-25T12:42:27;12.20;99.90
15636;DHT22;7917;50.818;6.972;2023-04-25T12:44:53;12.10;99.90
15636;DHT22;7917;50.818;6.972;2023-04-25T12:47:20;11.90;99.90
15636;DHT22;7917;50.818;6.972;2023-04-25T12:49:47;11.80;99.90
15636;DHT22;7917;50.818;6.972;2023-04-25T12:52:14;11.80;99.90
15636;DHT22;7917;50.818;6.972;2023-04-25T12:54:41;12.30;99.90
15636;DHT22;7917;50.818;6.972;2023-04-25T12:57:08;12.30;99.90
15636;DHT22;7917;50.818;6.972;2023-04-25T12:59:36;12.80;99.90
15636;DHT22;7917;50.818;6.972;2023-04-25T13:02:03;12.70;99.90
15636;DHT22;7917;50.818;6.972;2023-04-25T13:04:29;12.30;99.90
15636;DHT22;7917;50.818;6.972;2023-04-25T13:06:56;11.80;99.90
15636;DHT22;7917;50.818;6.972;2023-04-25T13:09:23;11.60;99.90
15636;DHT22;7917;50.818;6.972;2023-04-25T13:11:50;11.10;99.90
15636;DHT22;7917;50.818;6.972;2023-04-25T13:14:17;11.10;99.90
15636;DHT22;7917;50.818;6.972;2023-04-25T13:16:45;10.90;99.90
15636;DHT22;7917;50.818;6.972;2023-04-25T13:19:12;10.60;99.90
15636;DHT22;7917;50.818;6.972;2023-04-25T13:21:39;10.50;99.90
15636;DHT22;7917;50.818;6.972;2023-04-25T13:24:06;10.30;99.90
15636;DHT22;7917;50.818;6.972;2023-04-25T13:26:33;10.10;99.90
15636;DHT22;7917;50.818;6.972;2023-04-25T13:29:00;9.90;99.90
15636;DHT22;7917;50.818;6.972;2023-04-25T13:31:31;9.90;99.90
15636;DHT22;7917;50.818;6.972;2023-04-25T13:33:58;9.80;99.90
15636;DHT22;7917;50.818;6.972;2023-04-25T13:36:26;9.70;99.90
15636;DHT22;7917;50.818;6.972;2023-04-25T13:38:53;9.80;99.90
15636;DHT22;7917;50.818;6.972;2023-04-25T13:41:20;9.90;99.90
15636;DHT22;7917;50.818;6.972;2023-04-25T13:43:47;10.10;99.90
15636;DHT22;7917;50.818;6.972;2023-04-25T13:46:14;10.20;99.90
15636;DHT22;7917;50.818;6.972;2023-04-25T13:48:42;10.30;99.90
15636;DHT22;7917;50.818;6.972;2023-04-25T13:51:15;10.60;99.90
15636;DHT22;7917;50.818;6.972;2023-04-25T13:53:42;10.80;99.90
15636;DHT22;7917;50.818;6.972;2023-04-25T13:56:10;10.90;99.90
15636;DHT22;7917;50.818;6.972;2023-04-25T13:58:40;11.10;99.90
15636;DHT22;7917;50.818;6.972;2023-04-25T14:01:10;11.30;99.90
15636;DHT22;7917;50.818;6.972;2023-04-25T14:03:37;11.40;99.90
15636;DHT22;7917;50.818;6.972;2023-04-25T14:06:04;11.50;99.90
15636;DHT22;7917;50.818;6.972;2023-04-25T14:08:32;11.40;99.90
15636;DHT22;7917;50.818;6.972;2023-04-25T14:11:12;11.40;99.90
15636;DHT22;7917;50.818;6.972;2023-04-25T14:13:39;11.40;99.90
15636;DHT22;7917;50.818;6.972;2023-04-25T14:16:06;11.60;99.90
15636;DHT22;7917;50.818;6.972;2023-04-25T14:18:32;12.10;99.90
15636;DHT22;7917;50.818;6.972;2023-04-25T14:21:00;12.60;99.90
15636;DHT22;7917;50.818;6.972;2023-04-25T14:23:27;12.80;99.90
15636;DHT22;7917;50.818;6.972;2023-04-25T14:25:57;13.00;99.90
15636;DHT22;7917;50.818;6.972;2023-04-25T14:28:26;13.10;99.90
15636;DHT22;7917;50.818;6.972;2023-04-25T14:30:53;12.60;99.90
15636;DHT22;7917;50.818;6.972;2023-04-25T14:33:20;12.10;99.90
15636;DHT22;7917;50.818;6.972;2023-04-25T14:35:47;11.70;99.90
15636;DHT22;7917;50.818;6.972;2023-04-25T14:38:14;11.50;99.90
15636;DHT22;7917;50.818;6.972;2023-04-25T14:40:41;11.40;99.90
15636;DHT22;7917;50.818;6.972;2023-04-25T14:43:09;11.20;99.90
15636;DHT22;7917;50.818;6.972;2023-04-25T14:45:36;11.20;99.90
15636;DHT22;7917;50.818;6.972;2023-04-25T14:48:07;11.20;99.90
15636;DHT22;7917;50.818;6.972;2023-04-25T14:50:34;11.20;99.90
15636;DHT22;7917;50.818;6.972;2023-04-25T14:53:01;11.10;99.90
15636;DHT22;7917;50.818;6.972;2023-04-25T14:55:27;11.00;99.90
15636;DHT22;7917;50.818;6.972;2023-04-25T14:57:55;11.00;99.90
15636;DHT22;7917;50.818;6.972;2023-04-25T15:00:23;11.10;99.90
15636;DHT22;7917;50.818;6.972;2023-04-25T15:02:51;11.10;99.90
15636;DHT22;7917;50.818;6.972;2023-04-25T15:05:18;11.10;99.90
15636;DHT22;7917;50.818;6.972;2023-04-25T15:07:45;11.10;99.90
15636;DHT22;7917;50.818;6.972;2023-04-25T15:10:13;11.10;99.90
15636;DHT22;7917;50.818;6.972;2023-04-25T15:12:41;11.30;99.90
15636;DHT22;7917;50.818;6.972;2023-04-25T15:15:09;11.70;99.90
15636;DHT22;7917;50.818;6.972;2023-04-25T15:17:38;11.50;99.90
15636;DHT22;7917;50.818;6.972;2023-04-25T15:20:18;11.40;99.90
15636;DHT22;7917;50.818;6.972;2023-04-25T15:22:45;11.50;99.90
15636;DHT22;7917;50.818;6.972;2023-04-25T15:25:15;11.90;99.90
15636;DHT22;7917;50.818;6.972;2023-04-25T15:27:44;12.40;99.90
15636;DHT22;7917;50.818;6.972;2023-04-25T15:30:13;13.40;99.90
15636;DHT22;7917;50.818;6.972;2023-04-25T15:32:41;14.40;99.90
15636;DHT22;7917;50.818;6.972;2023-04-25T15:35:09;15.40;99.90
15636;DHT22;7917;50.818;6.972;2023-04-25T15:37:37;15.60;99.90
15636;DHT22;7917;50.818;6.972;2023-04-25T15:40:05;15.50;99.90
15636;DHT22;7917;50.818;6.972;2023-04-25T15:42:35;16.20;99.90
15636;DHT22;7917;50.818;6.972;2023-04-25T15:45:02;16.30;99.90
15636;DHT22;7917;50.818;6.972;2023-04-25T15:47:29;17.10;99.90
15636;DHT22;7917;50.818;6.972;2023-04-25T15:49:57;17.60;97.90
15636;DHT22;7917;50.818;6.972;2023-04-25T15:52:23;18.00;93.80
15636;DHT22;7917;50.818;6.972;2023-04-25T15:54:50;18.00;92.60
15636;DHT22;7917;50.818;6.972;2023-04-25T15:57:17;17.90;90.30
15636;DHT22;7917;50.818;6.972;2023-04-25T15:59:44;17.50;92.10
15636;DHT22;7917;50.818;6.972;2023-04-25T16:02:13;17.00;92.40
15636;DHT22;7917;50.818;6.972;2023-04-25T16:04:40;16.50;95.20
15636;DHT22;7917;50.818;6.972;2023-04-25T16:07:08;15.00;99.90
15636;DHT22;7917;50.818;6.972;2023-04-25T16:09:35;14.20;99.90
15636;DHT22;7917;50.818;6.972;2023-04-25T16:12:03;13.40;99.90
15636;DHT22;7917;50.818;6.972;2023-04-25T16:14:30;12.50;99.90
15636;DHT22;7917;50.818;6.972;2023-04-25T16:16:57;12.00;99.90
15636;DHT22;7917;50.818;6.972;2023-04-25T16:19:23;11.70;99.90